Capitol Logistics 7471

Operating for MZN



KPDX
Portland International Airport
Portland, Oregon
KRFD
Chicago/Rockford International Airport
Rockford, Illinois

Activity Log

Date Flight Route Aircraft Duration
03/24/2020 CPX455 LAVAA6 PDT DLN RAP J82 FSD J16 MCW DBQ B738 3h 39m
07/04/2019 CPX455 LAVAA6 PDT DLN RAP J82 FSD J16 MCW DBQ B738 3h 31m

Route Details

Aircraft Information
Primary: Boeing 767-300BDSF
Backup: Boeing 757-200SF
Route Data
Distance: 1457nm
Duration: 3h 14m
Recm'd Route: LAVAA6 PDT J16 BIL ONTIJ J16 MCW DBQ RFD
Origin Wx: KPDX 180053Z 29006KT 10SM CLR 29/M01 A3009 RMK AO2 SLP190 T02891011
Dest. Wx: KRFD 180054Z 01007KT 10SM BKN250 12/M01 A2995 RMK AO2 SLP146 T01171011
Notes: